sensor_id;sensor_type;location;lat;lon;timestamp;P1;durP1;ratioP1;P2;durP2;ratioP2
67941;SDS011;54731;42.600;23.476;2023-03-23T00:02:02;15.77;;;8.03;;
67941;SDS011;54731;42.600;23.476;2023-03-23T00:04:28;10.90;;;7.40;;
67941;SDS011;54731;42.600;23.476;2023-03-23T00:06:53;17.67;;;10.27;;
67941;SDS011;54731;42.600;23.476;2023-03-23T00:09:19;17.33;;;10.53;;
67941;SDS011;54731;42.600;23.476;2023-03-23T00:11:44;16.95;;;10.68;;
67941;SDS011;54731;42.600;23.476;2023-03-23T00:14:10;18.40;;;10.80;;
67941;SDS011;54731;42.600;23.476;2023-03-23T00:16:35;15.37;;;9.03;;
67941;SDS011;54731;42.600;23.476;2023-03-23T00:19:02;17.73;;;8.93;;
67941;SDS011;54731;42.600;23.476;2023-03-23T00:21:30;12.90;;;8.88;;
67941;SDS011;54731;42.600;23.476;2023-03-23T00:23:57;15.68;;;8.35;;
67941;SDS011;54731;42.600;23.476;2023-03-23T00:26:22;13.93;;;8.10;;
67941;SDS011;54731;42.600;23.476;2023-03-23T00:28:47;15.50;;;8.70;;
67941;SDS011;54731;42.600;23.476;2023-03-23T00:31:13;15.40;;;8.23;;
67941;SDS011;54731;42.600;23.476;2023-03-23T00:33:39;11.75;;;7.50;;
67941;SDS011;54731;42.600;23.476;2023-03-23T00:36:04;16.05;;;9.32;;
67941;SDS011;54731;42.600;23.476;2023-03-23T00:38:30;23.20;;;12.97;;
67941;SDS011;54731;42.600;23.476;2023-03-23T00:40:56;24.60;;;12.63;;
67941;SDS011;54731;42.600;23.476;2023-03-23T00:43:22;24.83;;;11.77;;
67941;SDS011;54731;42.600;23.476;2023-03-23T00:45:47;19.50;;;11.20;;
67941;SDS011;54731;42.600;23.476;2023-03-23T00:48:13;16.53;;;9.63;;
67941;SDS011;54731;42.600;23.476;2023-03-23T00:50:39;15.60;;;10.00;;
67941;SDS011;54731;42.600;23.476;2023-03-23T00:53:04;16.73;;;10.15;;
67941;SDS011;54731;42.600;23.476;2023-03-23T00:55:29;16.40;;;9.70;;
67941;SDS011;54731;42.600;23.476;2023-03-23T00:57:55;16.37;;;9.80;;
67941;SDS011;54731;42.600;23.476;2023-03-23T01:00:20;17.17;;;9.30;;
67941;SDS011;54731;42.600;23.476;2023-03-23T01:02:46;17.00;;;9.20;;
67941;SDS011;54731;42.600;23.476;2023-03-23T01:05:11;14.43;;;8.55;;
67941;SDS011;54731;42.600;23.476;2023-03-23T01:07:37;17.37;;;10.40;;
67941;SDS011;54731;42.600;23.476;2023-03-23T01:10:02;14.37;;;9.43;;
67941;SDS011;54731;42.600;23.476;2023-03-23T01:12:28;17.63;;;9.77;;
67941;SDS011;54731;42.600;23.476;2023-03-23T01:14:53;19.47;;;10.33;;
67941;SDS011;54731;42.600;23.476;2023-03-23T01:17:19;18.83;;;10.75;;
67941;SDS011;54731;42.600;23.476;2023-03-23T01:19:44;17.20;;;10.82;;
67941;SDS011;54731;42.600;23.476;2023-03-23T01:22:09;18.00;;;11.43;;
67941;SDS011;54731;42.600;23.476;2023-03-23T01:24:35;20.73;;;12.63;;
67941;SDS011;54731;42.600;23.476;2023-03-23T01:27:00;20.33;;;12.50;;
67941;SDS011;54731;42.600;23.476;2023-03-23T01:29:25;19.80;;;12.80;;
67941;SDS011;54731;42.600;23.476;2023-03-23T01:31:50;23.67;;;13.00;;
67941;SDS011;54731;42.600;23.476;2023-03-23T01:34:16;28.53;;;14.93;;
67941;SDS011;54731;42.600;23.476;2023-03-23T01:36:41;30.03;;;16.67;;
67941;SDS011;54731;42.600;23.476;2023-03-23T01:39:06;27.57;;;16.20;;
67941;SDS011;54731;42.600;23.476;2023-03-23T01:41:32;25.80;;;15.10;;
67941;SDS011;54731;42.600;23.476;2023-03-23T01:46:33;29.55;;;15.55;;
67941;SDS011;54731;42.600;23.476;2023-03-23T01:49:08;23.52;;;13.70;;
67941;SDS011;54731;42.600;23.476;2023-03-23T01:51:37;25.13;;;14.80;;
67941;SDS011;54731;42.600;23.476;2023-03-23T01:54:07;19.65;;;12.70;;
67941;SDS011;54731;42.600;23.476;2023-03-23T01:56:38;21.33;;;12.95;;
67941;SDS011;54731;42.600;23.476;2023-03-23T01:59:10;22.65;;;12.55;;
67941;SDS011;54731;42.600;23.476;2023-03-23T02:01:36;18.92;;;12.00;;
67941;SDS011;54731;42.600;23.476;2023-03-23T02:04:01;18.37;;;11.90;;
67941;SDS011;54731;42.600;23.476;2023-03-23T02:06:27;17.95;;;11.10;;
67941;SDS011;54731;42.600;23.476;2023-03-23T02:08:53;17.83;;;10.53;;
67941;SDS011;54731;42.600;23.476;2023-03-23T02:11:19;16.80;;;10.00;;
67941;SDS011;54731;42.600;23.476;2023-03-23T02:13:46;14.98;;;9.32;;
67941;SDS011;54731;42.600;23.476;2023-03-23T02:22:02;16.30;;;9.20;;
67941;SDS011;54731;42.600;23.476;2023-03-23T02:27:20;13.27;;;7.97;;
67941;SDS011;54731;42.600;23.476;2023-03-23T02:33:05;13.48;;;8.00;;
67941;SDS011;54731;42.600;23.476;2023-03-23T02:35:44;14.13;;;8.50;;
67941;SDS011;54731;42.600;23.476;2023-03-23T02:38:15;15.70;;;7.70;;
67941;SDS011;54731;42.600;23.476;2023-03-23T02:40:45;14.05;;;7.65;;
67941;SDS011;54731;42.600;23.476;2023-03-23T02:43:14;14.23;;;8.40;;
67941;SDS011;54731;42.600;23.476;2023-03-23T02:45:43;12.48;;;8.15;;
67941;SDS011;54731;42.600;23.476;2023-03-23T02:48:10;14.25;;;8.25;;
67941;SDS011;54731;42.600;23.476;2023-03-23T02:50:37;14.97;;;8.33;;
67941;SDS011;54731;42.600;23.476;2023-03-23T02:53:05;19.00;;;8.32;;
67941;SDS011;54731;42.600;23.476;2023-03-23T02:55:34;13.35;;;8.40;;
67941;SDS011;54731;42.600;23.476;2023-03-23T02:58:00;19.02;;;10.60;;
67941;SDS011;54731;42.600;23.476;2023-03-23T03:00:26;24.07;;;14.37;;
67941;SDS011;54731;42.600;23.476;2023-03-23T03:02:54;21.47;;;11.90;;
67941;SDS011;54731;42.600;23.476;2023-03-23T03:16:08;12.23;;;8.13;;
67941;SDS011;54731;42.600;23.476;2023-03-23T03:21:34;14.68;;;8.27;;
67941;SDS011;54731;42.600;23.476;2023-03-23T03:24:01;13.43;;;7.93;;
67941;SDS011;54731;42.600;23.476;2023-03-23T03:26:29;14.98;;;8.25;;
67941;SDS011;54731;42.600;23.476;2023-03-23T03:28:56;15.63;;;8.73;;
67941;SDS011;54731;42.600;23.476;2023-03-23T03:31:23;12.40;;;8.23;;
67941;SDS011;54731;42.600;23.476;2023-03-23T03:33:53;13.75;;;7.78;;
67941;SDS011;54731;42.600;23.476;2023-03-23T03:36:23;13.60;;;9.43;;
67941;SDS011;54731;42.600;23.476;2023-03-23T03:38:51;13.05;;;8.07;;
67941;SDS011;54731;42.600;23.476;2023-03-23T03:41:18;21.83;;;12.18;;
67941;SDS011;54731;42.600;23.476;2023-03-23T03:43:44;27.13;;;18.13;;
67941;SDS011;54731;42.600;23.476;2023-03-23T03:46:10;25.38;;;14.00;;
67941;SDS011;54731;42.600;23.476;2023-03-23T03:48:35;16.37;;;9.30;;
67941;SDS011;54731;42.600;23.476;2023-03-23T03:51:00;14.60;;;8.97;;
67941;SDS011;54731;42.600;23.476;2023-03-23T03:53:26;15.63;;;8.13;;
67941;SDS011;54731;42.600;23.476;2023-03-23T03:55:52;12.27;;;7.70;;
67941;SDS011;54731;42.600;23.476;2023-03-23T03:58:17;13.87;;;7.63;;
67941;SDS011;54731;42.600;23.476;2023-03-23T04:00:43;12.93;;;7.67;;
67941;SDS011;54731;42.600;23.476;2023-03-23T04:03:08;14.97;;;7.37;;
67941;SDS011;54731;42.600;23.476;2023-03-23T04:05:33;14.07;;;7.90;;
67941;SDS011;54731;42.600;23.476;2023-03-23T04:07:59;14.65;;;7.43;;
67941;SDS011;54731;42.600;23.476;2023-03-23T04:10:24;13.07;;;8.33;;
67941;SDS011;54731;42.600;23.476;2023-03-23T04:12:49;13.60;;;7.70;;
67941;SDS011;54731;42.600;23.476;2023-03-23T04:15:15;13.60;;;7.83;;
67941;SDS011;54731;42.600;23.476;2023-03-23T04:17:40;14.80;;;7.37;;
67941;SDS011;54731;42.600;23.476;2023-03-23T04:20:06;12.33;;;7.57;;
67941;SDS011;54731;42.600;23.476;2023-03-23T04:22:32;16.80;;;7.63;;
67941;SDS011;54731;42.600;23.476;2023-03-23T04:24:58;12.13;;;7.35;;
67941;SDS011;54731;42.600;23.476;2023-03-23T04:27:25;13.77;;;7.90;;
67941;SDS011;54731;42.600;23.476;2023-03-23T04:29:51;16.50;;;7.93;;
67941;SDS011;54731;42.600;23.476;2023-03-23T04:32:16;13.97;;;8.17;;
67941;SDS011;54731;42.600;23.476;2023-03-23T04:34:42;15.50;;;7.83;;
67941;SDS011;54731;42.600;23.476;2023-03-23T04:37:07;15.53;;;9.10;;
67941;SDS011;54731;42.600;23.476;2023-03-23T04:39:32;13.85;;;8.70;;
67941;SDS011;54731;42.600;23.476;2023-03-23T04:41:57;13.67;;;7.93;;
67941;SDS011;54731;42.600;23.476;2023-03-23T04:44:23;13.87;;;7.47;;
67941;SDS011;54731;42.600;23.476;2023-03-23T04:46:48;14.90;;;8.50;;
67941;SDS011;54731;42.600;23.476;2023-03-23T04:49:13;10.33;;;6.67;;
67941;SDS011;54731;42.600;23.476;2023-03-23T04:51:40;13.80;;;8.05;;
67941;SDS011;54731;42.600;23.476;2023-03-23T04:54:06;12.80;;;6.90;;
67941;SDS011;54731;42.600;23.476;2023-03-23T04:56:31;14.00;;;7.33;;
67941;SDS011;54731;42.600;23.476;2023-03-23T04:58:56;19.43;;;11.77;;
67941;SDS011;54731;42.600;23.476;2023-03-23T05:01:21;25.20;;;13.50;;
67941;SDS011;54731;42.600;23.476;2023-03-23T05:03:47;20.93;;;12.97;;
67941;SDS011;54731;42.600;23.476;2023-03-23T05:06:12;22.33;;;14.13;;
67941;SDS011;54731;42.600;23.476;2023-03-23T05:08:37;21.80;;;12.93;;
67941;SDS011;54731;42.600;23.476;2023-03-23T05:11:03;25.70;;;14.23;;
67941;SDS011;54731;42.600;23.476;2023-03-23T05:13:28;28.37;;;16.40;;
67941;SDS011;54731;42.600;23.476;2023-03-23T05:15:54;28.60;;;16.93;;
67941;SDS011;54731;42.600;23.476;2023-03-23T05:18:19;29.07;;;18.37;;
67941;SDS011;54731;42.600;23.476;2023-03-23T05:20:45;20.35;;;12.45;;
67941;SDS011;54731;42.600;23.476;2023-03-23T05:23:11;14.88;;;9.63;;
67941;SDS011;54731;42.600;23.476;2023-03-23T05:25:37;15.50;;;10.15;;
67941;SDS011;54731;42.600;23.476;2023-03-23T05:28:03;22.77;;;13.27;;
67941;SDS011;54731;42.600;23.476;2023-03-23T05:30:29;22.80;;;13.03;;
67941;SDS011;54731;42.600;23.476;2023-03-23T05:32:54;19.10;;;11.73;;
67941;SDS011;54731;42.600;23.476;2023-03-23T05:35:19;19.00;;;9.77;;
67941;SDS011;54731;42.600;23.476;2023-03-23T05:37:44;15.77;;;9.40;;
67941;SDS011;54731;42.600;23.476;2023-03-23T05:40:10;31.47;;;20.93;;
67941;SDS011;54731;42.600;23.476;2023-03-23T05:42:36;23.70;;;15.93;;
67941;SDS011;54731;42.600;23.476;2023-03-23T05:45:02;22.17;;;14.57;;
67941;SDS011;54731;42.600;23.476;2023-03-23T05:47:29;39.08;;;22.98;;
67941;SDS011;54731;42.600;23.476;2023-03-23T05:49:54;40.42;;;23.25;;
67941;SDS011;54731;42.600;23.476;2023-03-23T05:52:20;43.57;;;23.97;;
67941;SDS011;54731;42.600;23.476;2023-03-23T05:54:45;36.70;;;23.23;;
67941;SDS011;54731;42.600;23.476;2023-03-23T05:57:11;36.00;;;21.83;;
67941;SDS011;54731;42.600;23.476;2023-03-23T05:59:36;34.43;;;22.17;;
67941;SDS011;54731;42.600;23.476;2023-03-23T06:02:02;31.57;;;19.00;;
67941;SDS011;54731;42.600;23.476;2023-03-23T06:04:28;36.22;;;22.20;;
67941;SDS011;54731;42.600;23.476;2023-03-23T06:06:53;60.93;;;33.57;;
67941;SDS011;54731;42.600;23.476;2023-03-23T06:09:19;62.70;;;33.70;;
67941;SDS011;54731;42.600;23.476;2023-03-23T06:11:44;40.53;;;23.33;;
67941;SDS011;54731;42.600;23.476;2023-03-23T06:14:10;42.40;;;23.95;;
67941;SDS011;54731;42.600;23.476;2023-03-23T06:16:35;47.37;;;27.93;;
67941;SDS011;54731;42.600;23.476;2023-03-23T06:19:01;53.23;;;33.60;;
67941;SDS011;54731;42.600;23.476;2023-03-23T06:21:26;56.97;;;32.97;;
67941;SDS011;54731;42.600;23.476;2023-03-23T06:23:52;45.27;;;27.63;;
67941;SDS011;54731;42.600;23.476;2023-03-23T06:26:18;47.13;;;29.20;;
67941;SDS011;54731;42.600;23.476;2023-03-23T06:28:44;70.32;;;38.28;;
67941;SDS011;54731;42.600;23.476;2023-03-23T06:31:09;56.70;;;33.90;;
67941;SDS011;54731;42.600;23.476;2023-03-23T06:33:35;50.67;;;26.77;;
67941;SDS011;54731;42.600;23.476;2023-03-23T06:36:02;48.42;;;28.27;;
67941;SDS011;54731;42.600;23.476;2023-03-23T06:38:28;56.97;;;31.92;;
67941;SDS011;54731;42.600;23.476;2023-03-23T06:40:54;53.63;;;29.07;;
67941;SDS011;54731;42.600;23.476;2023-03-23T06:43:20;47.47;;;26.92;;
67941;SDS011;54731;42.600;23.476;2023-03-23T06:45:45;50.67;;;27.95;;
67941;SDS011;54731;42.600;23.476;2023-03-23T06:48:11;50.47;;;28.83;;
67941;SDS011;54731;42.600;23.476;2023-03-23T06:50:37;63.90;;;32.70;;
67941;SDS011;54731;42.600;23.476;2023-03-23T06:53:03;64.23;;;33.97;;
67941;SDS011;54731;42.600;23.476;2023-03-23T06:55:28;61.63;;;34.47;;
67941;SDS011;54731;42.600;23.476;2023-03-23T06:57:53;68.63;;;35.17;;
67941;SDS011;54731;42.600;23.476;2023-03-23T07:00:19;56.13;;;29.20;;
67941;SDS011;54731;42.600;23.476;2023-03-23T07:02:44;74.93;;;36.43;;
67941;SDS011;54731;42.600;23.476;2023-03-23T07:05:10;65.27;;;29.60;;
67941;SDS011;54731;42.600;23.476;2023-03-23T07:07:36;62.67;;;30.90;;
67941;SDS011;54731;42.600;23.476;2023-03-23T07:10:03;57.58;;;27.05;;
67941;SDS011;54731;42.600;23.476;2023-03-23T07:12:29;145.02;;;32.45;;
67941;SDS011;54731;42.600;23.476;2023-03-23T07:14:55;104.13;;;34.70;;
67941;SDS011;54731;42.600;23.476;2023-03-23T07:17:20;67.33;;;31.77;;
67941;SDS011;54731;42.600;23.476;2023-03-23T07:19:46;75.13;;;35.30;;
67941;SDS011;54731;42.600;23.476;2023-03-23T07:22:11;75.90;;;38.33;;
67941;SDS011;54731;42.600;23.476;2023-03-23T07:24:36;93.07;;;45.37;;
67941;SDS011;54731;42.600;23.476;2023-03-23T07:27:02;63.08;;;32.75;;
67941;SDS011;54731;42.600;23.476;2023-03-23T07:29:27;57.22;;;32.08;;
67941;SDS011;54731;42.600;23.476;2023-03-23T07:31:53;62.90;;;35.10;;
67941;SDS011;54731;42.600;23.476;2023-03-23T07:34:19;67.22;;;35.70;;
67941;SDS011;54731;42.600;23.476;2023-03-23T07:36:45;53.73;;;30.23;;
67941;SDS011;54731;42.600;23.476;2023-03-23T07:39:11;62.67;;;32.50;;
67941;SDS011;54731;42.600;23.476;2023-03-23T07:41:37;64.70;;;37.63;;
67941;SDS011;54731;42.600;23.476;2023-03-23T07:44:03;55.60;;;33.28;;
67941;SDS011;54731;42.600;23.476;2023-03-23T07:46:29;57.33;;;31.80;;
67941;SDS011;54731;42.600;23.476;2023-03-23T07:48:54;51.65;;;28.35;;
67941;SDS011;54731;42.600;23.476;2023-03-23T07:51:20;35.43;;;20.97;;
67941;SDS011;54731;42.600;23.476;2023-03-23T07:53:45;22.60;;;14.60;;
67941;SDS011;54731;42.600;23.476;2023-03-23T07:56:11;20.53;;;11.63;;
67941;SDS011;54731;42.600;23.476;2023-03-23T07:58:36;16.08;;;10.18;;
67941;SDS011;54731;42.600;23.476;2023-03-23T08:01:01;14.40;;;9.90;;
67941;SDS011;54731;42.600;23.476;2023-03-23T08:03:27;16.90;;;10.87;;
67941;SDS011;54731;42.600;23.476;2023-03-23T08:05:52;21.47;;;12.30;;
67941;SDS011;54731;42.600;23.476;2023-03-23T08:08:17;19.57;;;11.93;;
67941;SDS011;54731;42.600;23.476;2023-03-23T08:10:42;20.53;;;11.87;;
67941;SDS011;54731;42.600;23.476;2023-03-23T08:13:08;20.83;;;12.97;;
67941;SDS011;54731;42.600;23.476;2023-03-23T08:15:33;23.03;;;15.50;;
67941;SDS011;54731;42.600;23.476;2023-03-23T08:17:58;24.73;;;15.23;;
67941;SDS011;54731;42.600;23.476;2023-03-23T08:20:24;23.40;;;13.60;;
67941;SDS011;54731;42.600;23.476;2023-03-23T08:22:51;24.58;;;13.63;;
67941;SDS011;54731;42.600;23.476;2023-03-23T08:25:18;21.93;;;13.20;;
67941;SDS011;54731;42.600;23.476;2023-03-23T08:27:44;24.83;;;13.52;;
67941;SDS011;54731;42.600;23.476;2023-03-23T08:30:13;24.63;;;14.07;;
67941;SDS011;54731;42.600;23.476;2023-03-23T08:32:41;24.87;;;15.03;;
67941;SDS011;54731;42.600;23.476;2023-03-23T08:35:07;24.27;;;14.35;;
67941;SDS011;54731;42.600;23.476;2023-03-23T08:37:34;27.60;;;16.70;;
67941;SDS011;54731;42.600;23.476;2023-03-23T08:39:59;27.02;;;16.77;;
67941;SDS011;54731;42.600;23.476;2023-03-23T08:42:25;31.92;;;16.55;;
67941;SDS011;54731;42.600;23.476;2023-03-23T08:44:51;24.57;;;15.20;;
67941;SDS011;54731;42.600;23.476;2023-03-23T08:47:16;22.48;;;13.85;;
67941;SDS011;54731;42.600;23.476;2023-03-23T08:49:42;28.40;;;15.30;;
67941;SDS011;54731;42.600;23.476;2023-03-23T08:52:07;29.50;;;16.73;;
67941;SDS011;54731;42.600;23.476;2023-03-23T08:54:33;25.52;;;14.63;;
67941;SDS011;54731;42.600;23.476;2023-03-23T08:56:59;16.97;;;10.03;;
67941;SDS011;54731;42.600;23.476;2023-03-23T08:59:25;14.27;;;7.85;;
67941;SDS011;54731;42.600;23.476;2023-03-23T09:01:50;40.77;;;22.87;;
67941;SDS011;54731;42.600;23.476;2023-03-23T09:04:16;30.07;;;17.03;;
67941;SDS011;54731;42.600;23.476;2023-03-23T09:06:41;25.20;;;15.10;;
67941;SDS011;54731;42.600;23.476;2023-03-23T09:09:06;22.17;;;13.03;;
67941;SDS011;54731;42.600;23.476;2023-03-23T09:11:33;16.73;;;10.17;;
67941;SDS011;54731;42.600;23.476;2023-03-23T09:13:59;12.38;;;7.85;;
67941;SDS011;54731;42.600;23.476;2023-03-23T09:16:24;12.17;;;8.20;;
67941;SDS011;54731;42.600;23.476;2023-03-23T09:18:49;13.30;;;8.57;;
67941;SDS011;54731;42.600;23.476;2023-03-23T09:21:15;18.08;;;7.53;;
67941;SDS011;54731;42.600;23.476;2023-03-23T09:23:40;11.63;;;7.93;;
67941;SDS011;54731;42.600;23.476;2023-03-23T09:26:05;13.97;;;7.57;;
67941;SDS011;54731;42.600;23.476;2023-03-23T09:28:31;14.57;;;9.70;;
67941;SDS011;54731;42.600;23.476;2023-03-23T09:30:56;30.57;;;13.57;;
67941;SDS011;54731;42.600;23.476;2023-03-23T09:33:22;15.57;;;9.77;;
67941;SDS011;54731;42.600;23.476;2023-03-23T09:35:47;13.85;;;8.38;;
67941;SDS011;54731;42.600;23.476;2023-03-23T09:38:12;12.53;;;8.40;;
67941;SDS011;54731;42.600;23.476;2023-03-23T09:40:48;12.57;;;8.77;;
67941;SDS011;54731;42.600;23.476;2023-03-23T09:49:35;11.65;;;7.93;;
67941;SDS011;54731;42.600;23.476;2023-03-23T09:52:14;12.07;;;7.85;;
67941;SDS011;54731;42.600;23.476;2023-03-23T09:54:50;11.05;;;7.05;;
67941;SDS011;54731;42.600;23.476;2023-03-23T10:00:14;13.10;;;8.07;;
67941;SDS011;54731;42.600;23.476;2023-03-23T10:05:17;17.25;;;11.15;;
67941;SDS011;54731;42.600;23.476;2023-03-23T10:08:08;12.55;;;7.85;;
67941;SDS011;54731;42.600;23.476;2023-03-23T10:10:44;13.52;;;8.82;;
67941;SDS011;54731;42.600;23.476;2023-03-23T10:15:51;9.88;;;7.00;;
67941;SDS011;54731;42.600;23.476;2023-03-23T10:21:11;9.48;;;6.80;;
67941;SDS011;54731;42.600;23.476;2023-03-23T10:24:23;10.52;;;7.15;;
67941;SDS011;54731;42.600;23.476;2023-03-23T10:29:31;22.73;;;11.77;;
67941;SDS011;54731;42.600;23.476;2023-03-23T10:32:08;11.35;;;7.20;;
67941;SDS011;54731;42.600;23.476;2023-03-23T10:37:12;11.93;;;8.35;;
67941;SDS011;54731;42.600;23.476;2023-03-23T10:39:45;13.00;;;8.52;;
67941;SDS011;54731;42.600;23.476;2023-03-23T10:42:27;15.50;;;8.70;;
67941;SDS011;54731;42.600;23.476;2023-03-23T10:44:55;14.07;;;9.88;;
67941;SDS011;54731;42.600;23.476;2023-03-23T10:47:21;16.50;;;8.70;;
67941;SDS011;54731;42.600;23.476;2023-03-23T10:49:51;8.93;;;6.35;;
67941;SDS011;54731;42.600;23.476;2023-03-23T10:57:40;8.68;;;5.72;;
67941;SDS011;54731;42.600;23.476;2023-03-23T11:00:14;10.05;;;5.85;;
67941;SDS011;54731;42.600;23.476;2023-03-23T11:02:44;12.20;;;7.22;;
67941;SDS011;54731;42.600;23.476;2023-03-23T11:05:21;11.23;;;6.97;;
67941;SDS011;54731;42.600;23.476;2023-03-23T11:07:53;8.95;;;6.57;;
67941;SDS011;54731;42.600;23.476;2023-03-23T11:10:21;14.20;;;8.23;;
67941;SDS011;54731;42.600;23.476;2023-03-23T11:12:49;10.75;;;7.55;;
67941;SDS011;54731;42.600;23.476;2023-03-23T11:15:36;12.60;;;7.00;;
67941;SDS011;54731;42.600;23.476;2023-03-23T11:18:03;8.27;;;5.95;;
67941;SDS011;54731;42.600;23.476;2023-03-23T11:20:33;11.35;;;7.15;;
67941;SDS011;54731;42.600;23.476;2023-03-23T11:23:01;10.52;;;6.63;;
67941;SDS011;54731;42.600;23.476;2023-03-23T11:25:34;20.73;;;16.63;;
67941;SDS011;54731;42.600;23.476;2023-03-23T11:28:33;14.90;;;13.30;;
67941;SDS011;54731;42.600;23.476;2023-03-23T11:31:01;9.60;;;7.07;;
67941;SDS011;54731;42.600;23.476;2023-03-23T11:33:29;9.30;;;5.93;;
67941;SDS011;54731;42.600;23.476;2023-03-23T11:36:00;10.77;;;6.00;;
67941;SDS011;54731;42.600;23.476;2023-03-23T11:38:25;9.13;;;6.43;;
67941;SDS011;54731;42.600;23.476;2023-03-23T11:40:51;8.40;;;6.27;;
67941;SDS011;54731;42.600;23.476;2023-03-23T11:43:23;10.07;;;6.63;;
67941;SDS011;54731;42.600;23.476;2023-03-23T11:46:03;9.97;;;6.80;;
67941;SDS011;54731;42.600;23.476;2023-03-23T11:51:16;10.45;;;6.97;;
67941;SDS011;54731;42.600;23.476;2023-03-23T11:56:30;10.18;;;6.28;;
67941;SDS011;54731;42.600;23.476;2023-03-23T11:58:59;7.73;;;5.57;;
67941;SDS011;54731;42.600;23.476;2023-03-23T12:06:41;9.80;;;6.20;;
67941;SDS011;54731;42.600;23.476;2023-03-23T12:11:55;11.95;;;8.25;;
67941;SDS011;54731;42.600;23.476;2023-03-23T12:20:44;7.97;;;6.15;;
67941;SDS011;54731;42.600;23.476;2023-03-23T12:23:24;9.57;;;7.45;;
67941;SDS011;54731;42.600;23.476;2023-03-23T12:31:20;8.90;;;7.07;;
67941;SDS011;54731;42.600;23.476;2023-03-23T12:34:11;7.35;;;6.60;;
67941;SDS011;54731;42.600;23.476;2023-03-23T12:36:55;10.68;;;6.15;;
67941;SDS011;54731;42.600;23.476;2023-03-23T12:44:41;7.95;;;6.13;;
67941;SDS011;54731;42.600;23.476;2023-03-23T12:50:05;8.48;;;6.43;;
67941;SDS011;54731;42.600;23.476;2023-03-23T12:52:43;7.07;;;5.07;;
67941;SDS011;54731;42.600;23.476;2023-03-23T12:55:21;9.38;;;6.63;;
67941;SDS011;54731;42.600;23.476;2023-03-23T13:05:38;13.38;;;7.78;;
67941;SDS011;54731;42.600;23.476;2023-03-23T13:10:47;20.40;;;13.73;;
67941;SDS011;54731;42.600;23.476;2023-03-23T13:13:17;9.60;;;6.50;;
67941;SDS011;54731;42.600;23.476;2023-03-23T13:15:56;10.00;;;6.17;;
67941;SDS011;54731;42.600;23.476;2023-03-23T13:23:44;8.80;;;6.28;;
67941;SDS011;54731;42.600;23.476;2023-03-23T13:26:17;8.05;;;6.22;;
67941;SDS011;54731;42.600;23.476;2023-03-23T13:33:50;15.38;;;10.30;;
67941;SDS011;54731;42.600;23.476;2023-03-23T13:36:17;9.00;;;6.68;;
67941;SDS011;54731;42.600;23.476;2023-03-23T13:38:50;7.75;;;6.57;;
67941;SDS011;54731;42.600;23.476;2023-03-23T13:41:16;6.10;;;5.50;;
67941;SDS011;54731;42.600;23.476;2023-03-23T13:43:43;7.75;;;6.50;;
67941;SDS011;54731;42.600;23.476;2023-03-23T13:48:43;11.27;;;6.40;;
67941;SDS011;54731;42.600;23.476;2023-03-23T13:54:05;13.05;;;10.77;;
67941;SDS011;54731;42.600;23.476;2023-03-23T13:56:52;11.47;;;7.87;;
67941;SDS011;54731;42.600;23.476;2023-03-23T14:01:56;12.73;;;8.55;;
67941;SDS011;54731;42.600;23.476;2023-03-23T14:04:41;36.95;;;23.27;;
67941;SDS011;54731;42.600;23.476;2023-03-23T14:07:10;13.43;;;9.00;;
67941;SDS011;54731;42.600;23.476;2023-03-23T14:09:39;11.80;;;7.82;;
67941;SDS011;54731;42.600;23.476;2023-03-23T14:12:16;13.73;;;10.20;;
67941;SDS011;54731;42.600;23.476;2023-03-23T14:14:45;11.57;;;8.80;;
67941;SDS011;54731;42.600;23.476;2023-03-23T14:17:14;7.87;;;6.20;;
67941;SDS011;54731;42.600;23.476;2023-03-23T14:19:48;7.38;;;5.72;;
67941;SDS011;54731;42.600;23.476;2023-03-23T14:22:23;8.07;;;6.47;;
67941;SDS011;54731;42.600;23.476;2023-03-23T14:25:09;10.73;;;7.43;;
67941;SDS011;54731;42.600;23.476;2023-03-23T14:27:43;94.93;;;50.38;;
67941;SDS011;54731;42.600;23.476;2023-03-23T14:30:13;22.53;;;13.33;;
67941;SDS011;54731;42.600;23.476;2023-03-23T14:32:41;34.58;;;18.05;;
67941;SDS011;54731;42.600;23.476;2023-03-23T14:35:08;24.48;;;15.23;;
67941;SDS011;54731;42.600;23.476;2023-03-23T14:37:55;10.27;;;7.43;;
67941;SDS011;54731;42.600;23.476;2023-03-23T14:40:21;19.15;;;11.48;;
67941;SDS011;54731;42.600;23.476;2023-03-23T14:42:47;11.73;;;8.20;;
67941;SDS011;54731;42.600;23.476;2023-03-23T14:45:17;31.75;;;18.52;;
67941;SDS011;54731;42.600;23.476;2023-03-23T14:48:16;13.55;;;9.57;;
67941;SDS011;54731;42.600;23.476;2023-03-23T14:50:42;11.20;;;6.55;;
67941;SDS011;54731;42.600;23.476;2023-03-23T14:53:25;43.25;;;29.02;;
67941;SDS011;54731;42.600;23.476;2023-03-23T14:55:59;29.30;;;21.40;;
67941;SDS011;54731;42.600;23.476;2023-03-23T14:58:26;18.23;;;12.98;;
67941;SDS011;54731;42.600;23.476;2023-03-23T15:01:09;20.17;;;14.73;;
67941;SDS011;54731;42.600;23.476;2023-03-23T15:03:38;18.52;;;13.57;;
67941;SDS011;54731;42.600;23.476;2023-03-23T15:06:10;15.55;;;11.55;;
67941;SDS011;54731;42.600;23.476;2023-03-23T15:08:39;15.30;;;9.75;;
67941;SDS011;54731;42.600;23.476;2023-03-23T15:13:48;24.85;;;12.82;;
67941;SDS011;54731;42.600;23.476;2023-03-23T15:16:20;14.75;;;10.50;;
67941;SDS011;54731;42.600;23.476;2023-03-23T15:18:55;20.93;;;15.67;;
67941;SDS011;54731;42.600;23.476;2023-03-23T15:21:33;15.90;;;11.20;;
67941;SDS011;54731;42.600;23.476;2023-03-23T15:24:00;13.23;;;9.43;;
67941;SDS011;54731;42.600;23.476;2023-03-23T15:26:43;13.82;;;7.65;;
67941;SDS011;54731;42.600;23.476;2023-03-23T15:29:12;12.98;;;8.45;;
67941;SDS011;54731;42.600;23.476;2023-03-23T15:31:41;10.30;;;8.10;;
67941;SDS011;54731;42.600;23.476;2023-03-23T15:34:12;10.70;;;9.60;;
67941;SDS011;54731;42.600;23.476;2023-03-23T15:36:42;28.48;;;14.07;;
67941;SDS011;54731;42.600;23.476;2023-03-23T15:39:09;46.83;;;22.07;;
67941;SDS011;54731;42.600;23.476;2023-03-23T15:41:44;14.32;;;10.98;;
67941;SDS011;54731;42.600;23.476;2023-03-23T15:44:18;43.78;;;25.05;;
67941;SDS011;54731;42.600;23.476;2023-03-23T15:46:50;244.00;;;120.15;;
67941;SDS011;54731;42.600;23.476;2023-03-23T15:49:17;124.00;;;64.53;;
67941;SDS011;54731;42.600;23.476;2023-03-23T15:51:43;169.52;;;74.10;;
67941;SDS011;54731;42.600;23.476;2023-03-23T15:54:11;221.65;;;96.15;;
67941;SDS011;54731;42.600;23.476;2023-03-23T15:56:38;238.65;;;107.10;;
67941;SDS011;54731;42.600;23.476;2023-03-23T15:59:04;159.88;;;71.00;;
67941;SDS011;54731;42.600;23.476;2023-03-23T16:01:29;111.53;;;53.67;;
67941;SDS011;54731;42.600;23.476;2023-03-23T16:03:59;129.50;;;59.88;;
67941;SDS011;54731;42.600;23.476;2023-03-23T16:06:29;157.95;;;72.15;;
67941;SDS011;54731;42.600;23.476;2023-03-23T16:08:56;193.38;;;82.65;;
67941;SDS011;54731;42.600;23.476;2023-03-23T16:11:22;202.43;;;92.83;;
67941;SDS011;54731;42.600;23.476;2023-03-23T16:13:51;184.77;;;96.50;;
67941;SDS011;54731;42.600;23.476;2023-03-23T16:16:18;403.50;;;302.98;;
67941;SDS011;54731;42.600;23.476;2023-03-23T16:18:52;431.98;;;329.27;;
67941;SDS011;54731;42.600;23.476;2023-03-23T16:21:17;313.70;;;222.52;;
67941;SDS011;54731;42.600;23.476;2023-03-23T16:23:43;471.95;;;353.17;;